Time;durP1;ratioP1;P1;durP2;ratioP2;P2;SDS_P1;SDS_P2;PMS_P1;PMS_P2;Temp;Humidity;BMP_temperature;BMP_pressure;BME280_temperature;BME280_humidity;BME280_pressure;Samples;Min_cycle;Max_cycle;Signal;HPM_P1;HPM_P2
2021/05/24 04:12:37;;;;;;;0.70;0.70;;;10.90;99.90;;;;;;4952900;29;20653;-75
2021/05/24 04:15:05;;;;;;;0.70;0.70;;;11.00;99.90;;;;;;4954053;29;20212;-73
2021/05/24 04:17:36;;;;;;;0.70;0.70;;;10.80;99.90;;;;;;4953922;28;20205;-75
2021/05/24 04:20:05;;;;;;;0.70;0.70;;;10.80;99.90;;;;;;4953966;29;20685;-73
2021/05/24 04:22:32;;;;;;;0.70;0.70;;;10.90;99.90;;;;;;4954137;28;20353;-73
2021/05/24 04:25:00;;;;;;;0.70;0.70;;;11.10;99.90;;;;;;4954417;29;20252;-73
2021/05/24 04:27:27;;;;;;;0.60;0.60;;;11.10;99.90;;;;;;4953883;28;20209;-73
2021/05/24 04:29:56;;;;;;;0.77;0.77;;;11.10;99.90;;;;;;4954335;28;20212;-73
2021/05/24 04:32:23;;;;;;;0.70;0.70;;;11.30;99.90;;;;;;4954188;28;20229;-74
2021/05/24 04:34:51;;;;;;;0.70;0.70;;;11.30;99.90;;;;;;4954789;28;20206;-74
2021/05/24 04:37:19;;;;;;;0.70;0.70;;;11.30;99.90;;;;;;4954119;29;20209;-74
2021/05/24 04:39:46;;;;;;;0.70;0.70;;;11.50;99.90;;;;;;4954029;29;20268;-74
2021/05/24 04:42:14;;;;;;;0.80;0.80;;;11.70;99.90;;;;;;4954147;28;20229;-76
2021/05/24 04:44:42;;;;;;;0.70;0.70;;;11.80;99.90;;;;;;4953893;28;20551;-73
2021/05/24 04:47:10;;;;;;;0.70;0.70;;;11.70;99.90;;;;;;4953662;29;20256;-73
2021/05/24 04:49:37;;;;;;;0.50;0.50;;;11.80;99.90;;;;;;4956756;28;20209;-73
2021/05/24 04:52:05;;;;;;;0.70;0.70;;;11.70;99.90;;;;;;4957508;28;20221;-74
2021/05/24 04:54:33;;;;;;;0.80;0.80;;;11.80;99.90;;;;;;4957427;29;20221;-74
2021/05/24 04:57:00;;;;;;;0.70;0.70;;;11.70;99.90;;;;;;4957315;29;20268;-74
2021/05/24 04:59:27;;;;;;;0.70;0.70;;;11.70;99.90;;;;;;4957416;29;20205;-74
2021/05/24 05:01:55;;;;;;;0.70;0.70;;;11.80;99.90;;;;;;4957284;28;20221;-74
2021/05/24 05:04:23;;;;;;;0.70;0.70;;;11.70;99.90;;;;;;4957289;29;20205;-73
2021/05/24 05:06:51;;;;;;;0.70;0.70;;;11.90;99.90;;;;;;4957339;28;20670;-73
2021/05/24 05:09:18;;;;;;;0.70;0.70;;;12.00;99.90;;;;;;4957248;29;20212;-73
2021/05/24 05:11:46;;;;;;;0.70;0.70;;;12.10;99.90;;;;;;4957106;28;20300;-73
2021/05/24 05:14:13;;;;;;;0.70;0.70;;;12.30;99.90;;;;;;4957007;29;20225;-73
2021/05/24 05:16:40;;;;;;;0.70;0.70;;;12.40;99.90;;;;;;4957196;29;20428;-73
2021/05/24 05:19:08;;;;;;;0.60;0.60;;;12.50;99.90;;;;;;4957210;29;20255;-73
2021/05/24 05:21:36;;;;;;;0.70;0.70;;;12.50;99.90;;;;;;4957203;28;20710;-73
2021/05/24 05:24:04;;;;;;;0.70;0.70;;;12.60;99.90;;;;;;4956961;29;20248;-73
2021/05/24 05:26:32;;;;;;;0.60;0.60;;;12.60;99.90;;;;;;4956826;29;20209;-73
2021/05/24 05:28:59;;;;;;;0.70;0.70;;;12.80;99.90;;;;;;4957208;29;20209;-73
2021/05/24 05:31:26;;;;;;;0.60;0.60;;;13.00;99.90;;;;;;4956635;28;20714;-73
2021/05/24 05:33:54;;;;;;;0.70;0.70;;;12.90;99.90;;;;;;4956729;29;20272;-74
2021/05/24 05:36:23;;;;;;;0.70;0.70;;;12.90;99.90;;;;;;4956498;29;20284;-73
2021/05/24 05:38:52;;;;;;;0.60;0.60;;;13.00;99.90;;;;;;4956873;29;20266;-73
2021/05/24 05:41:21;;;;;;;0.70;0.70;;;13.00;99.90;;;;;;4956564;28;20265;-73
2021/05/24 05:43:48;;;;;;;0.68;0.68;;;13.00;99.90;;;;;;4956800;29;20209;-74
2021/05/24 05:46:16;;;;;;;0.70;0.70;;;13.20;99.90;;;;;;4956588;28;20304;-74
2021/05/24 05:48:43;;;;;;;0.50;0.50;;;13.40;99.90;;;;;;4956433;29;20229;-73
2021/05/24 05:51:10;;;;;;;0.60;0.60;;;13.40;99.90;;;;;;4956830;28;20226;-73
2021/05/24 05:53:38;;;;;;;0.60;0.60;;;13.40;99.90;;;;;;4956238;29;20268;-73
2021/05/24 05:56:06;;;;;;;0.50;0.50;;;13.30;99.90;;;;;;4956691;29;20209;-73
2021/05/24 05:58:34;;;;;;;0.60;0.60;;;13.20;99.90;;;;;;4956524;29;20622;-74
2021/05/24 06:01:03;;;;;;;0.60;0.60;;;13.10;99.90;;;;;;4955676;28;20268;-75
2021/05/24 06:03:31;;;;;;;0.60;0.60;;;13.00;99.90;;;;;;4955898;28;20205;-74
2021/05/24 06:05:58;;;;;;;0.50;0.50;;;13.00;99.90;;;;;;4954899;29;20201;-75
2021/05/24 06:08:26;;;;;;;0.60;0.60;;;13.10;99.90;;;;;;4954828;28;20272;-74
2021/05/24 06:10:53;;;;;;;0.60;0.60;;;13.40;99.90;;;;;;4954312;28;20239;-74
2021/05/24 06:13:21;;;;;;;0.60;0.60;;;13.60;99.90;;;;;;4955330;29;20225;-74
2021/05/24 06:15:49;;;;;;;0.60;0.60;;;13.70;99.90;;;;;;4955211;29;20224;-75
2021/05/24 06:18:16;;;;;;;0.60;0.60;;;13.80;99.90;;;;;;4954885;29;20217;-76
2021/05/24 06:20:46;;;;;;;0.60;0.60;;;13.80;99.90;;;;;;4954787;28;20280;-75
2021/05/24 06:23:14;;;;;;;0.50;0.50;;;14.20;99.90;;;;;;4955755;28;20206;-77
2021/05/24 06:25:42;;;;;;;0.50;0.50;;;14.30;99.90;;;;;;4956302;29;20213;-76
2021/05/24 06:28:09;;;;;;;0.50;0.50;;;14.50;99.90;;;;;;4956401;28;20209;-76
2021/05/24 06:30:38;;;;;;;0.60;0.60;;;14.60;99.90;;;;;;4956069;28;20280;-76
2021/05/24 06:33:06;;;;;;;0.50;0.50;;;14.70;99.90;;;;;;4955880;29;20213;-76
2021/05/24 06:35:34;;;;;;;0.50;0.50;;;14.90;99.90;;;;;;4955666;28;20237;-76
2021/05/24 06:38:01;;;;;;;0.60;0.60;;;15.10;99.90;;;;;;4956696;29;20665;-76
2021/05/24 06:40:30;;;;;;;0.50;0.50;;;15.20;99.90;;;;;;4956187;28;20670;-74
2021/05/24 06:42:58;;;;;;;0.60;0.60;;;15.10;99.90;;;;;;4955564;28;20205;-76
2021/05/24 06:45:25;;;;;;;0.50;0.50;;;15.20;99.90;;;;;;4955765;29;20209;-76
2021/05/24 06:47:53;;;;;;;0.60;0.60;;;15.30;99.90;;;;;;4955435;29;20256;-76
2021/05/24 06:50:21;;;;;;;0.40;0.40;;;15.00;99.90;;;;;;4955530;28;20209;-76
2021/05/24 06:52:48;;;;;;;0.50;0.50;;;15.10;99.90;;;;;;4955268;29;20745;-74
2021/05/24 06:55:16;;;;;;;0.50;0.50;;;15.10;99.90;;;;;;4955427;29;20221;-74
2021/05/24 06:57:43;;;;;;;0.60;0.60;;;15.00;99.90;;;;;;4955504;29;20296;-75
2021/05/24 07:00:12;;;;;;;0.50;0.50;;;15.40;99.90;;;;;;4955326;28;20213;-75
2021/05/24 07:02:41;;;;;;;0.50;0.50;;;15.20;99.90;;;;;;4955184;28;20671;-76
2021/05/24 07:05:11;;;;;;;0.50;0.50;;;15.30;99.90;;;;;;4955800;29;20261;-75
2021/05/24 07:07:38;;;;;;;0.60;0.60;;;15.30;99.90;;;;;;4956422;28;20234;-77
2021/05/24 07:10:08;;;;;;;0.40;0.40;;;15.20;99.90;;;;;;4951204;28;20217;-75
2021/05/24 07:12:36;;;;;;;0.50;0.50;;;15.30;99.90;;;;;;4958152;28;20225;-77
2021/05/24 07:15:04;;;;;;;0.43;0.43;;;15.50;99.90;;;;;;4956383;29;20222;-78
2021/05/24 07:17:32;;;;;;;0.50;0.50;;;15.50;99.90;;;;;;4957780;29;20205;-78
2021/05/24 07:20:02;;;;;;;0.50;0.50;;;15.40;99.90;;;;;;4956897;29;20205;-75
2021/05/24 07:22:31;;;;;;;0.40;0.40;;;15.60;99.90;;;;;;4954910;28;20627;-74
2021/05/24 07:24:59;;;;;;;0.50;0.50;;;15.50;99.90;;;;;;4954797;29;20581;-74
2021/05/24 07:27:26;;;;;;;0.40;0.40;;;15.60;99.90;;;;;;4954911;29;20605;-75
2021/05/24 07:29:54;;;;;;;0.50;0.50;;;15.80;99.90;;;;;;4954901;29;20209;-76
2021/05/24 07:32:21;;;;;;;0.40;0.40;;;15.80;99.90;;;;;;4955053;28;20233;-76
2021/05/24 07:34:49;;;;;;;0.40;0.40;;;15.90;99.90;;;;;;4954623;29;20284;-73
2021/05/24 07:37:16;;;;;;;0.40;0.40;;;16.20;99.90;;;;;;4955171;28;20213;-74
2021/05/24 07:39:44;;;;;;;0.40;0.40;;;16.40;99.90;;;;;;4954643;29;20205;-74
2021/05/24 07:42:12;;;;;;;0.50;0.50;;;16.50;99.90;;;;;;4954412;28;20276;-74
2021/05/24 07:44:39;;;;;;;0.40;0.40;;;16.50;99.80;;;;;;4954846;28;20247;-74
2021/05/24 07:47:07;;;;;;;0.40;0.40;;;16.50;98.20;;;;;;4951351;28;20209;-74
2021/05/24 07:49:34;;;;;;;0.50;0.50;;;16.40;97.60;;;;;;4950897;28;20202;-74
2021/05/24 07:52:03;;;;;;;0.50;0.50;;;16.40;98.00;;;;;;4962112;28;20236;-74
2021/05/24 07:54:30;;;;;;;0.40;0.40;;;16.50;97.80;;;;;;4953965;29;20260;-74
2021/05/24 07:56:58;;;;;;;0.50;0.50;;;16.70;97.10;;;;;;4953939;29;20925;-73
2021/05/24 07:59:26;;;;;;;0.50;0.50;;;16.90;96.90;;;;;;4954224;29;20228;-73
2021/05/24 08:01:53;;;;;;;0.50;0.50;;;16.90;96.30;;;;;;4954167;28;20321;-74
2021/05/24 08:04:21;;;;;;;0.50;0.50;;;17.20;96.50;;;;;;4954537;29;20205;-75
2021/05/24 08:06:48;;;;;;;0.40;0.40;;;17.40;96.10;;;;;;4955342;29;20209;-74
2021/05/24 08:09:15;;;;;;;0.40;0.40;;;17.50;95.80;;;;;;4956588;29;20206;-75
2021/05/24 08:11:42;;;;;;;0.50;0.50;;;17.40;95.60;;;;;;4955895;28;20245;-75
2021/05/24 08:14:14;;;;;;;0.40;0.40;;;17.60;95.60;;;;;;4955778;29;20260;-75
2021/05/24 08:16:42;;;;;;;0.40;0.40;;;17.50;95.90;;;;;;4955473;29;20591;-75
2021/05/24 08:19:09;;;;;;;0.40;0.40;;;17.30;95.60;;;;;;4946676;29;20275;-75
2021/05/24 08:21:39;;;;;;;0.40;0.40;;;17.30;95.70;;;;;;4934646;28;20221;-73
2021/05/24 08:24:07;;;;;;;0.40;0.40;;;17.40;96.60;;;;;;4950592;28;20205;-74
2021/05/24 08:26:35;;;;;;;0.40;0.40;;;17.30;96.70;;;;;;4953840;29;20733;-75
2021/05/24 08:29:03;;;;;;;0.30;0.30;;;17.50;97.30;;;;;;4933447;29;20248;-74
2021/05/24 08:31:31;;;;;;;0.40;0.40;;;17.40;96.40;;;;;;4953979;28;20233;-75
2021/05/24 08:33:59;;;;;;;0.40;0.40;;;17.50;96.30;;;;;;4953876;29;20229;-74
2021/05/24 08:36:26;;;;;;;0.30;0.30;;;17.60;96.50;;;;;;4953987;29;20260;-75
2021/05/24 08:38:54;;;;;;;0.30;0.30;;;17.70;95.90;;;;;;4953772;29;20213;-75
2021/05/24 08:41:22;;;;;;;0.40;0.40;;;17.70;95.70;;;;;;4954148;28;20221;-74
2021/05/24 08:43:53;;;;;;;0.40;0.40;;;17.60;95.40;;;;;;4954063;29;20647;-76
2021/05/24 08:46:21;;;;;;;0.30;0.30;;;17.40;95.50;;;;;;4954640;29;20205;-75
2021/05/24 08:48:49;;;;;;;0.30;0.30;;;17.50;95.60;;;;;;4952401;29;20224;-74
2021/05/24 08:51:17;;;;;;;0.40;0.40;;;17.50;95.80;;;;;;4953541;28;20248;-74
2021/05/24 08:53:44;;;;;;;0.40;0.40;;;17.30;96.20;;;;;;4953812;29;20209;-74
2021/05/24 08:56:12;;;;;;;0.40;0.40;;;17.30;96.40;;;;;;4953231;28;20256;-74
2021/05/24 08:58:39;;;;;;;0.40;0.40;;;17.30;96.00;;;;;;4953741;29;20279;-74
2021/05/24 09:01:07;;;;;;;0.40;0.40;;;17.60;96.60;;;;;;4953716;28;20298;-75
2021/05/24 09:03:36;;;;;;;0.30;0.30;;;17.90;96.00;;;;;;4953747;29;20201;-74
2021/05/24 09:06:07;;;;;;;0.40;0.40;;;17.90;95.30;;;;;;4953496;28;20205;-74
2021/05/24 09:08:35;;;;;;;0.30;0.30;;;18.10;95.20;;;;;;4949961;28;20198;-74
2021/05/24 09:11:13;;;;;;;0.40;0.40;;;18.40;93.30;;;;;;4990110;23;20271;-74
2021/05/24 09:13:42;;;;;;;0.30;0.30;;;;;;;;;;4992071;28;20536;-74
2021/05/24 09:16:12;;;;;;;0.40;0.40;;;18.40;93.10;;;;;;4992032;28;20759;-74
2021/05/24 09:18:39;;;;;;;0.30;0.30;;;18.50;93.90;;;;;;4992056;28;20665;-74
2021/05/24 09:21:08;;;;;;;0.40;0.40;;;18.50;93.10;;;;;;4984701;28;20228;-73
2021/05/24 09:23:35;;;;;;;0.40;0.40;;;18.60;92.90;;;;;;4972838;28;20204;-74
2021/05/24 09:26:06;;;;;;;0.30;0.30;;;18.50;91.80;;;;;;4972599;28;20291;-74
2021/05/24 09:28:39;;;;;;;0.40;0.40;;;18.50;91.50;;;;;;4972828;28;20209;-74
2021/05/24 09:31:10;;;;;;;0.40;0.40;;;18.70;91.20;;;;;;4972824;28;20232;-75
2021/05/24 09:33:39;;;;;;;0.30;0.30;;;18.50;87.80;;;;;;4973006;28;20291;-74
2021/05/24 09:36:08;;;;;;;0.30;0.30;;;18.50;88.70;;;;;;4974024;28;20776;-75
2021/05/24 09:38:39;;;;;;;0.30;0.30;;;18.80;90.60;;;;;;4975535;28;20259;-74
2021/05/24 09:41:07;;;;;;;0.30;0.30;;;19.00;89.00;;;;;;4975034;28;20224;-76
2021/05/24 09:43:37;;;;;;;0.40;0.40;;;19.00;86.40;;;;;;4975800;28;20208;-76
2021/05/24 09:46:17;;;;;;;0.30;0.30;;;18.70;82.90;;;;;;4976110;28;20220;-77
2021/05/24 09:48:47;;;;;;;0.35;0.35;;;18.70;83.50;;;;;;4976207;28;20251;-75
2021/05/24 09:51:17;;;;;;;0.30;0.30;;;18.80;84.40;;;;;;4975862;28;20893;-77
2021/05/24 09:53:55;;;;;;;0.30;0.30;;;18.80;81.60;;;;;;4976601;28;20209;-75
2021/05/24 09:56:23;;;;;;;0.30;0.30;;;18.80;80.50;;;;;;4975619;28;20275;-75
2021/05/24 09:59:01;;;;;;;0.40;0.40;;;18.70;78.40;;;;;;4975822;28;20263;-74
2021/05/24 10:01:32;;;;;;;0.40;0.40;;;18.80;80.60;;;;;;4975405;28;20220;-74
2021/05/24 10:04:00;;;;;;;0.30;0.30;;;18.90;78.00;;;;;;4975577;28;20628;-74
2021/05/24 10:06:28;;;;;;;0.30;0.30;;;19.00;76.30;;;;;;4975288;28;20716;-74
2021/05/24 10:08:56;;;;;;;0.30;0.30;;;19.00;74.10;;;;;;4975542;28;20212;-75
2021/05/24 10:11:24;;;;;;;0.30;0.30;;;18.90;75.30;;;;;;4975114;28;20263;-75
2021/05/24 10:13:52;;;;;;;0.40;0.40;;;19.00;75.50;;;;;;4975598;28;20201;-74
2021/05/24 10:16:19;;;;;;;0.40;0.40;;;19.10;75.50;;;;;;4970307;28;20220;-73
2021/05/24 10:18:47;;;;;;;0.30;0.30;;;19.20;78.50;;;;;;4967221;28;20209;-73
2021/05/24 10:21:14;;;;;;;0.30;0.30;;;19.20;75.90;;;;;;4975049;28;20232;-74
2021/05/24 10:23:43;;;;;;;0.30;0.30;;;19.20;74.40;;;;;;4974160;28;20208;-74
2021/05/24 10:26:12;;;;;;;0.40;0.40;;;19.20;74.90;;;;;;4973380;28;20208;-73
2021/05/24 10:28:40;;;;;;;0.30;0.30;;;19.20;73.70;;;;;;4973618;28;20205;-73
2021/05/24 10:31:18;;;;;;;0.30;0.30;;;19.30;74.30;;;;;;4973552;28;20232;-73
2021/05/24 10:33:48;;;;;;;0.30;0.30;;;19.40;73.10;;;;;;4973540;28;20689;-74
2021/05/24 10:36:18;;;;;;;0.30;0.30;;;19.50;73.30;;;;;;4973076;28;20228;-74
2021/05/24 10:39:01;;;;;;;0.30;0.30;;;19.40;72.00;;;;;;4973623;28;20208;-74
2021/05/24 10:41:45;;;;;;;0.30;0.30;;;19.40;72.60;;;;;;4970333;28;20252;-74
2021/05/24 10:44:14;;;;;;;0.40;0.40;;;19.50;72.30;;;;;;4962046;28;20185;-75
2021/05/24 10:46:42;;;;;;;0.40;0.40;;;19.50;72.60;;;;;;4953314;28;20558;-75
2021/05/24 10:49:22;;;;;;;0.30;0.30;;;19.60;72.70;;;;;;4953986;29;20209;-75
2021/05/24 10:51:59;;;;;;;0.40;0.40;;;19.80;72.70;;;;;;4953634;28;20221;-75
2021/05/24 10:54:31;;;;;;;0.30;0.30;;;19.80;75.30;;;;;;4953645;29;20201;-75
2021/05/24 10:57:07;;;;;;;0.30;0.30;;;20.00;77.50;;;;;;4953553;28;20288;-75
2021/05/24 10:59:47;;;;;;;0.30;0.30;;;20.10;73.30;;;;;;4953846;29;20263;-76
2021/05/24 11:02:16;;;;;;;0.40;0.40;;;;;;;;;;4953429;28;20280;-75
2021/05/24 11:04:53;;;;;;;0.30;0.30;;;20.20;71.00;;;;;;4953920;29;20205;-76
2021/05/24 11:07:22;;;;;;;0.30;0.30;;;20.50;72.10;;;;;;4953161;29;20854;-75
2021/05/24 11:09:51;;;;;;;0.30;0.30;;;20.60;72.70;;;;;;4953616;29;20670;-76
2021/05/24 11:12:29;;;;;;;0.40;0.40;;;20.70;73.10;;;;;;4953269;29;20241;-74
2021/05/24 11:15:09;;;;;;;0.40;0.40;;;20.80;71.80;;;;;;4953227;29;20229;-74
2021/05/24 11:18:12;;;;;;;0.30;0.30;;;20.80;70.10;;;;;;4982458;23;20275;-74
2021/05/24 11:20:46;;;;;;;0.30;0.30;;;20.90;69.80;;;;;;4968942;28;20661;-77
2021/05/24 11:23:24;;;;;;;0.30;0.30;;;21.10;70.20;;;;;;4973313;28;20613;-75
2021/05/24 11:25:58;;;;;;;0.30;0.30;;;20.90;89.10;;;;;;4972173;28;20251;-76
2021/05/24 11:28:37;;;;;;;0.30;0.30;;;20.70;68.90;;;;;;4973243;28;20212;-77
2021/05/24 11:31:10;;;;;;;0.20;0.20;;;20.70;69.50;;;;;;4973478;28;20200;-76
2021/05/24 11:33:39;;;;;;;0.30;0.30;;;20.90;69.50;;;;;;4972683;28;20547;-75
2021/05/24 11:36:08;;;;;;;0.20;0.20;;;21.00;70.40;;;;;;4972751;28;20649;-77
2021/05/24 11:38:36;;;;;;;0.30;0.30;;;21.00;68.30;;;;;;4972988;28;20212;-75
2021/05/24 11:41:12;;;;;;;0.30;0.30;;;21.00;68.90;;;;;;4973301;28;20701;-75
2021/05/24 11:43:42;;;;;;;0.30;0.30;;;21.00;68.30;;;;;;4972503;28;20212;-75
2021/05/24 11:46:12;;;;;;;0.30;0.30;;;21.10;68.50;;;;;;4972499;28;20231;-76
2021/05/24 11:48:41;;;;;;;0.20;0.20;;;21.30;71.10;;;;;;4972418;28;20259;-76
2021/05/24 11:51:14;;;;;;;0.20;0.20;;;21.20;68.10;;;;;;4972424;28;20208;-76
2021/05/24 11:53:59;;;;;;;0.30;0.30;;;21.20;68.30;;;;;;4972307;28;20255;-77
2021/05/24 11:56:36;;;;;;;0.30;0.30;;;21.00;68.90;;;;;;4972137;28;20582;-75
2021/05/24 11:59:05;;;;;;;0.22;0.22;;;21.00;69.50;;;;;;4971668;28;20212;-77
2021/05/24 12:01:33;;;;;;;0.30;0.30;;;21.00;69.10;;;;;;4971564;28;20208;-74
2021/05/24 12:04:06;;;;;;;0.30;0.30;;;21.00;69.20;;;;;;4973734;28;20209;-77
2021/05/24 12:06:45;;;;;;;0.30;0.30;;;21.10;69.50;;;;;;4973728;28;20641;-77
2021/05/24 12:09:14;;;;;;;0.30;0.30;;;21.10;69.30;;;;;;4973108;28;20217;-76
2021/05/24 12:11:57;;;;;;;0.30;0.30;;;21.30;70.40;;;;;;4971727;28;20232;-77
2021/05/24 12:14:25;;;;;;;0.30;0.30;;;;;;;;;;4972526;28;20253;-76
2021/05/24 12:16:53;;;;;;;0.40;0.40;;;21.40;74.30;;;;;;4973672;28;20258;-76
2021/05/24 12:19:24;;;;;;;0.30;0.30;;;21.70;70.40;;;;;;4973492;28;20209;-76
2021/05/24 12:21:53;;;;;;;0.40;0.40;;;21.90;67.50;;;;;;4973382;28;20732;-77
2021/05/24 12:24:21;;;;;;;0.22;0.22;;;22.00;79.50;;;;;;4973898;28;20255;-77
2021/05/24 12:26:51;;;;;;;0.20;0.20;;;22.20;66.80;;;;;;4973409;28;20300;-76
2021/05/24 12:29:23;;;;;;;0.20;0.20;;;22.40;66.10;;;;;;4974227;28;20207;-77
2021/05/24 12:31:53;;;;;;;0.20;0.20;;;22.60;65.70;;;;;;4984398;28;20283;-75
2021/05/24 12:34:26;;;;;;;0.20;0.20;;;22.60;64.50;;;;;;4985720;28;20208;-77
2021/05/24 12:36:56;;;;;;;0.20;0.20;;;23.10;65.10;;;;;;4975761;28;20287;-77
2021/05/24 12:39:26;;;;;;;0.20;0.20;;;23.30;65.40;;;;;;4977143;28;20331;-76
2021/05/24 12:41:56;;;;;;;0.20;0.20;;;23.80;63.50;;;;;;4975524;28;20268;-77
2021/05/24 12:44:26;;;;;;;0.20;0.20;;;23.80;63.40;;;;;;4976984;28;20201;-77
2021/05/24 12:46:56;;;;;;;0.20;0.20;;;24.10;62.50;;;;;;4977089;28;20245;-77
2021/05/24 12:49:34;;;;;;;0.20;0.20;;;23.60;73.80;;;;;;4977860;28;20212;-76
2021/05/24 12:52:03;;;;;;;0.20;0.20;;;23.90;73.40;;;;;;4977226;28;20292;-76
2021/05/24 12:54:42;;;;;;;0.20;0.20;;;24.00;66.40;;;;;;4978533;28;20208;-77
2021/05/24 12:57:10;;;;;;;0.20;0.20;;;24.20;62.40;;;;;;4979042;28;20340;-76
2021/05/24 12:59:49;;;;;;;0.20;0.20;;;23.80;62.20;;;;;;4979494;28;20208;-78
2021/05/24 13:02:23;;;;;;;0.20;0.20;;;24.00;60.50;;;;;;4978743;28;20215;-77
2021/05/24 13:04:50;;;;;;;0.20;0.20;;;23.90;60.20;;;;;;4979096;28;20205;-77
2021/05/24 13:07:19;;;;;;;0.20;0.20;;;24.10;60.30;;;;;;4978174;28;20221;-76
2021/05/24 13:10:04;;;;;;;0.20;0.20;;;24.30;59.00;;;;;;4980543;28;20251;-78
2021/05/24 13:12:35;;;;;;;0.20;0.20;;;24.60;74.50;;;;;;4982500;28;20236;-77
2021/05/24 13:15:05;;;;;;;0.20;0.20;;;24.50;68.40;;;;;;4983179;28;20232;-77
2021/05/24 13:17:49;;;;;;;0.20;0.20;;;24.40;62.40;;;;;;4983338;28;20233;-77
2021/05/24 13:20:34;;;;;;;0.20;0.20;;;24.40;63.70;;;;;;4982982;28;20217;-77
2021/05/24 13:26:26;;;;;;;0.20;0.20;;;25.00;59.20;;;;;;4961366;28;20208;-77
2021/05/24 13:29:00;;;;;;;0.20;0.20;;;24.80;57.30;;;;;;4962080;28;20209;-77
2021/05/24 13:31:31;;;;;;;0.20;0.20;;;24.70;59.00;;;;;;4976883;28;20204;-77
2021/05/24 13:33:59;;;;;;;0.20;0.20;;;24.60;59.70;;;;;;4985740;28;20221;-76
2021/05/24 13:36:28;;;;;;;0.20;0.20;;;24.60;59.40;;;;;;4987068;28;20225;-76
2021/05/24 13:39:15;;;;;;;0.30;0.30;;;24.30;59.30;;;;;;4993853;28;20203;-77
2021/05/24 13:41:44;;;;;;;0.20;0.20;;;24.10;59.00;;;;;;4995954;28;20193;-77
2021/05/24 13:44:14;;;;;;;0.20;0.20;;;24.20;60.00;;;;;;4994116;28;20185;-76
2021/05/24 13:46:42;;;;;;;0.20;0.20;;;24.60;59.70;;;;;;4997828;28;20212;-76
2021/05/24 13:49:12;;;;;;;0.20;0.20;;;24.70;59.10;;;;;;4994400;28;20188;-77
2021/05/24 13:51:40;;;;;;;0.20;0.20;;;24.60;59.80;;;;;;4985947;28;20209;-77
2021/05/24 13:54:09;;;;;;;0.20;0.20;;;24.60;59.20;;;;;;4976456;28;20208;-76
2021/05/24 13:56:38;;;;;;;0.20;0.20;;;24.40;60.20;;;;;;4975816;28;20225;-75
2021/05/24 13:59:06;;;;;;;0.20;0.20;;;;;;;;;;4976381;28;20670;-77
2021/05/24 14:01:35;;;;;;;0.20;0.20;;;23.40;96.40;;;;;;4976616;28;20212;-77
2021/05/24 14:04:04;;;;;;;0.20;0.20;;;23.60;64.00;;;;;;4976474;28;20205;-77
2021/05/24 14:06:32;;;;;;;0.20;0.20;;;23.70;62.50;;;;;;4976489;28;20268;-77
2021/05/24 14:08:59;;;;;;;0.20;0.20;;;23.70;65.20;;;;;;4976638;28;20287;-75
2021/05/24 14:11:26;;;;;;;0.20;0.20;;;24.00;66.20;;;;;;4976400;28;20201;-77
2021/05/24 14:13:54;;;;;;;0.20;0.20;;;23.60;66.00;;;;;;4976610;28;20251;-76
2021/05/24 14:16:22;;;;;;;0.20;0.20;;;23.50;71.60;;;;;;4975936;28;20225;-77
2021/05/24 14:18:50;;;;;;;0.30;0.30;;;23.10;59.90;;;;;;4975861;28;20260;-75
2021/05/24 14:21:20;;;;;;;0.20;0.20;;;23.30;60.80;;;;;;4974805;28;20205;-77
2021/05/24 14:23:49;;;;;;;0.20;0.20;;;23.50;61.20;;;;;;4975887;28;20208;-77
2021/05/24 14:26:17;;;;;;;0.20;0.20;;;23.50;60.20;;;;;;4975025;28;20357;-75
2021/05/24 14:28:45;;;;;;;0.20;0.20;;;23.80;60.70;;;;;;4975880;28;20216;-77
2021/05/24 14:31:12;;;;;;;0.20;0.20;;;23.90;61.00;;;;;;4975463;28;20283;-77
2021/05/24 14:33:40;;;;;;;0.28;0.28;;;23.90;61.00;;;;;;4975257;28;20263;-77
2021/05/24 14:36:08;;;;;;;0.20;0.20;;;23.70;60.50;;;;;;4974845;28;20236;-77
2021/05/24 14:38:36;;;;;;;0.20;0.20;;;23.80;65.40;;;;;;4975136;28;20204;-77
2021/05/24 14:41:07;;;;;;;0.20;0.20;;;23.80;60.00;;;;;;4977099;28;20212;-76
2021/05/24 14:43:34;;;;;;;0.20;0.20;;;23.70;59.60;;;;;;4975768;28;20342;-76
2021/05/24 14:46:02;;;;;;;0.20;0.20;;;23.50;60.10;;;;;;4974895;28;20197;-77
2021/05/24 14:48:30;;;;;;;0.20;0.20;;;23.30;60.50;;;;;;4974937;28;20211;-77
2021/05/24 14:50:57;;;;;;;0.20;0.20;;;23.30;61.60;;;;;;4975050;28;20212;-77
2021/05/24 14:53:26;;;;;;;0.20;0.20;;;23.20;62.20;;;;;;4974616;28;20677;-76
2021/05/24 14:55:55;;;;;;;0.20;0.20;;;23.20;91.40;;;;;;4972598;28;20205;-74
2021/05/24 14:58:23;;;;;;;0.20;0.20;;;23.10;65.30;;;;;;4965558;28;20204;-76
2021/05/24 15:00:54;;;;;;;0.20;0.20;;;23.20;64.60;;;;;;4972782;28;20215;-76
2021/05/24 15:03:22;;;;;;;0.20;0.20;;;23.30;64.00;;;;;;4973761;28;20209;-71
2021/05/24 15:05:49;;;;;;;0.20;0.20;;;23.40;62.20;;;;;;4974811;28;20627;-77
2021/05/24 15:08:17;;;;;;;0.20;0.20;;;23.50;62.00;;;;;;4966532;28;20213;-69
2021/05/24 15:10:44;;;;;;;0.20;0.20;;;23.60;61.50;;;;;;4968795;28;20209;-70
2021/05/24 15:13:13;;;;;;;0.22;0.22;;;23.50;62.10;;;;;;4962782;28;20667;-71
2021/05/24 15:15:40;;;;;;;0.20;0.20;;;23.60;63.60;;;;;;4954874;28;20216;-71
2021/05/24 15:18:08;;;;;;;0.20;0.20;;;23.60;62.40;;;;;;4954712;29;20225;-70
2021/05/24 15:20:35;;;;;;;0.20;0.20;;;23.60;62.20;;;;;;4954783;29;20268;-69
2021/05/24 15:23:12;;;;;;;0.20;0.20;;;23.50;63.80;;;;;;4954898;28;20223;-70
2021/05/24 15:25:39;;;;;;;0.20;0.20;;;23.10;62.70;;;;;;4954367;29;20757;-73
2021/05/24 15:28:08;;;;;;;0.20;0.20;;;23.10;62.30;;;;;;4954668;29;20225;-71
2021/05/24 15:30:37;;;;;;;0.20;0.20;;;22.90;64.50;;;;;;4955042;29;20206;-73
2021/05/24 15:33:06;;;;;;;0.20;0.20;;;23.00;63.70;;;;;;4953737;28;20585;-72
2021/05/24 15:35:34;;;;;;;0.20;0.20;;;23.10;65.40;;;;;;4954882;29;20622;-67
2021/05/24 15:38:07;;;;;;;0.20;0.20;;;23.00;63.70;;;;;;4954617;29;20233;-68
2021/05/24 15:40:35;;;;;;;0.20;0.20;;;23.00;63.70;;;;;;4954711;28;20212;-68
2021/05/24 15:43:05;;;;;;;0.20;0.20;;;23.00;63.70;;;;;;4954488;29;20229;-68
2021/05/24 15:45:33;;;;;;;0.28;0.28;;;23.00;64.10;;;;;;4954356;28;20209;-67
2021/05/24 15:48:02;;;;;;;0.20;0.20;;;23.20;65.40;;;;;;4954718;29;20234;-68
2021/05/24 15:50:30;;;;;;;0.20;0.20;;;23.10;62.50;;;;;;4954441;29;20208;-70
2021/05/24 15:52:57;;;;;;;0.20;0.20;;;23.20;63.10;;;;;;4965182;28;20251;-70
2021/05/24 15:55:26;;;;;;;0.20;0.20;;;23.20;62.90;;;;;;4973713;28;20267;-74
2021/05/24 15:57:53;;;;;;;0.20;0.20;;;23.00;63.80;;;;;;4963438;28;20221;-74
2021/05/24 16:00:22;;;;;;;0.20;0.20;;;22.80;63.70;;;;;;4956453;28;20217;-76
2021/05/24 16:02:51;;;;;;;0.20;0.20;;;22.90;64.10;;;;;;4966773;28;20227;-75
2021/05/24 16:05:20;;;;;;;0.20;0.20;;;22.90;64.20;;;;;;4962658;28;20263;-74
2021/05/24 16:07:48;;;;;;;0.20;0.20;;;23.00;63.70;;;;;;4961917;28;20219;-74
2021/05/24 16:10:20;;;;;;;0.20;0.20;;;22.60;63.80;;;;;;4954094;29;20209;-75
2021/05/24 16:12:48;;;;;;;0.20;0.20;;;22.60;64.00;;;;;;4954338;28;20233;-75
2021/05/24 16:15:16;;;;;;;0.30;0.30;;;22.70;64.10;;;;;;4954197;29;20205;-75
2021/05/24 16:17:44;;;;;;;0.30;0.30;;;22.60;64.00;;;;;;4953832;28;20225;-76
2021/05/24 16:20:13;;;;;;;0.20;0.20;;;22.60;65.10;;;;;;4953588;29;20264;-75
2021/05/24 16:22:44;;;;;;;0.22;0.22;;;22.80;65.80;;;;;;4953821;29;20671;-75
2021/05/24 16:25:31;;;;;;;0.20;0.20;;;22.60;65.40;;;;;;4953431;29;20636;-77
2021/05/24 16:27:59;;;;;;;0.20;0.20;;;22.90;65.10;;;;;;4954077;28;20224;-75
2021/05/24 16:30:26;;;;;;;0.30;0.30;;;23.30;64.20;;;;;;4953815;29;20794;-76
2021/05/24 16:32:54;;;;;;;0.30;0.30;;;23.60;63.80;;;;;;4953934;29;20205;-74
2021/05/24 16:35:22;;;;;;;0.20;0.20;;;23.70;62.80;;;;;;4972303;28;20255;-75
2021/05/24 16:37:55;;;;;;;0.30;0.30;;;23.90;62.40;;;;;;4973200;28;20283;-74
2021/05/24 16:40:23;;;;;;;0.20;0.20;;;24.20;61.70;;;;;;4965834;28;20198;-75
2021/05/24 16:42:51;;;;;;;0.20;0.20;;;24.50;60.40;;;;;;4953626;29;20256;-75
2021/05/24 16:45:19;;;;;;;0.30;0.30;;;24.60;74.50;;;;;;4955491;28;20252;-76
2021/05/24 16:47:47;;;;;;;0.20;0.20;;;24.60;63.60;;;;;;4957708;28;20279;-76
2021/05/24 16:50:15;;;;;;;0.20;0.20;;;25.00;89.30;;;;;;4957900;28;20213;-76
2021/05/24 16:52:43;;;;;;;0.20;0.20;;;24.70;88.10;;;;;;4957550;29;20209;-76
2021/05/24 16:55:14;;;;;;;0.20;0.20;;;24.80;67.10;;;;;;4957741;29;20205;-76
2021/05/24 16:57:41;;;;;;;0.20;0.20;;;24.50;69.90;;;;;;4957574;28;20225;-77
2021/05/24 17:00:12;;;;;;;0.20;0.20;;;24.40;69.80;;;;;;4957482;29;20209;-77
2021/05/24 17:02:40;;;;;;;0.30;0.30;;;24.00;76.30;;;;;;4957394;28;20216;-77
2021/05/24 17:05:09;;;;;;;0.28;0.28;;;23.90;74.10;;;;;;4956785;29;20206;-74
2021/05/24 17:07:38;;;;;;;0.20;0.20;;;23.60;63.60;;;;;;4957148;28;20224;-76
2021/05/24 17:10:08;;;;;;;0.20;0.20;;;23.20;94.10;;;;;;4957178;29;20205;-77
2021/05/24 17:12:37;;;;;;;0.20;0.20;;;22.90;65.00;;;;;;4957018;28;20252;-76
2021/05/24 17:15:06;;;;;;;0.20;0.20;;;22.40;66.70;;;;;;4959255;28;20197;-75